sensor_id;sensor_type;location;lat;lon;timestamp;P1;durP1;ratioP1;P2;durP2;ratioP2
7179;SDS011;3631;42.152;24.756;2023-04-03T00:00:57;2.23;;;2.03;;
7179;SDS011;3631;42.152;24.756;2023-04-03T00:07:27;2.33;;;1.30;;
7179;SDS011;3631;42.152;24.756;2023-04-03T00:10:21;1.47;;;1.30;;
7179;SDS011;3631;42.152;24.756;2023-04-03T00:13:25;3.33;;;1.40;;
7179;SDS011;3631;42.152;24.756;2023-04-03T00:16:23;1.10;;;1.10;;
7179;SDS011;3631;42.152;24.756;2023-04-03T00:19:06;1.07;;;1.00;;
7179;SDS011;3631;42.152;24.756;2023-04-03T00:22:09;1.20;;;1.10;;
7179;SDS011;3631;42.152;24.756;2023-04-03T00:25:06;1.00;;;1.00;;
7179;SDS011;3631;42.152;24.756;2023-04-03T00:27:52;1.17;;;1.17;;
7179;SDS011;3631;42.152;24.756;2023-04-03T00:30:59;2.33;;;1.27;;
7179;SDS011;3631;42.152;24.756;2023-04-03T00:33:46;1.30;;;1.20;;
7179;SDS011;3631;42.152;24.756;2023-04-03T00:36:55;1.10;;;1.10;;
7179;SDS011;3631;42.152;24.756;2023-04-03T00:39:52;3.40;;;1.30;;
7179;SDS011;3631;42.152;24.756;2023-04-03T00:42:43;1.23;;;1.23;;
7179;SDS011;3631;42.152;24.756;2023-04-03T00:46:00;1.30;;;1.20;;
7179;SDS011;3631;42.152;24.756;2023-04-03T00:48:55;2.23;;;1.43;;
7179;SDS011;3631;42.152;24.756;2023-04-03T00:52:02;1.57;;;1.47;;
7179;SDS011;3631;42.152;24.756;2023-04-03T00:58:07;1.40;;;1.30;;
7179;SDS011;3631;42.152;24.756;2023-04-03T01:01:08;5.23;;;1.70;;
7179;SDS011;3631;42.152;24.756;2023-04-03T01:04:24;1.50;;;1.40;;
7179;SDS011;3631;42.152;24.756;2023-04-03T01:07:24;3.13;;;1.47;;
7179;SDS011;3631;42.152;24.756;2023-04-03T01:10:07;2.00;;;1.37;;
7179;SDS011;3631;42.152;24.756;2023-04-03T01:16:25;1.73;;;1.60;;
7179;SDS011;3631;42.152;24.756;2023-04-03T01:22:59;5.60;;;2.13;;
7179;SDS011;3631;42.152;24.756;2023-04-03T01:26:10;1.70;;;1.60;;
7179;SDS011;3631;42.152;24.756;2023-04-03T01:29:23;1.90;;;1.80;;
7179;SDS011;3631;42.152;24.756;2023-04-03T01:32:22;2.27;;;1.60;;
7179;SDS011;3631;42.152;24.756;2023-04-03T01:35:13;4.40;;;1.70;;
7179;SDS011;3631;42.152;24.756;2023-04-03T01:38:09;2.00;;;1.70;;
7179;SDS011;3631;42.152;24.756;2023-04-03T01:41:05;1.60;;;1.50;;
7179;SDS011;3631;42.152;24.756;2023-04-03T01:44:01;2.30;;;1.40;;
7179;SDS011;3631;42.152;24.756;2023-04-03T01:46:51;5.77;;;1.60;;
7179;SDS011;3631;42.152;24.756;2023-04-03T01:49:52;1.63;;;1.53;;
7179;SDS011;3631;42.152;24.756;2023-04-03T01:52:57;2.10;;;1.87;;
7179;SDS011;3631;42.152;24.756;2023-04-03T01:55:59;2.13;;;1.80;;
7179;SDS011;3631;42.152;24.756;2023-04-03T01:59:07;2.27;;;1.90;;
7179;SDS011;3631;42.152;24.756;2023-04-03T02:02:03;1.90;;;1.73;;
7179;SDS011;3631;42.152;24.756;2023-04-03T02:05:18;1.60;;;1.50;;
7179;SDS011;3631;42.152;24.756;2023-04-03T02:08:18;1.90;;;1.80;;
7179;SDS011;3631;42.152;24.756;2023-04-03T02:11:14;3.23;;;2.23;;
7179;SDS011;3631;42.152;24.756;2023-04-03T02:14:04;2.23;;;2.13;;
7179;SDS011;3631;42.152;24.756;2023-04-03T02:17:05;4.87;;;2.27;;
7179;SDS011;3631;42.152;24.756;2023-04-03T02:19:45;6.40;;;2.90;;
7179;SDS011;3631;42.152;24.756;2023-04-03T02:26:11;3.27;;;2.97;;
7179;SDS011;3631;42.152;24.756;2023-04-03T02:29:22;3.07;;;2.77;;
7179;SDS011;3631;42.152;24.756;2023-04-03T02:32:27;3.97;;;2.20;;
7179;SDS011;3631;42.152;24.756;2023-04-03T02:35:22;2.10;;;2.00;;
7179;SDS011;3631;42.152;24.756;2023-04-03T02:38:23;3.37;;;2.13;;
7179;SDS011;3631;42.152;24.756;2023-04-03T02:41:35;2.20;;;2.10;;
7179;SDS011;3631;42.152;24.756;2023-04-03T02:44:44;4.27;;;2.07;;
7179;SDS011;3631;42.152;24.756;2023-04-03T02:47:37;2.40;;;2.20;;
7179;SDS011;3631;42.152;24.756;2023-04-03T02:50:34;4.43;;;2.17;;
7179;SDS011;3631;42.152;24.756;2023-04-03T02:53:40;2.40;;;2.20;;
7179;SDS011;3631;42.152;24.756;2023-04-03T02:56:49;3.10;;;2.20;;
7179;SDS011;3631;42.152;24.756;2023-04-03T02:59:39;2.07;;;1.97;;
7179;SDS011;3631;42.152;24.756;2023-04-03T03:02:31;2.60;;;2.40;;
7179;SDS011;3631;42.152;24.756;2023-04-03T03:05:13;2.80;;;2.60;;
7179;SDS011;3631;42.152;24.756;2023-04-03T03:08:01;2.53;;;2.33;;
7179;SDS011;3631;42.152;24.756;2023-04-03T03:10:31;3.90;;;2.07;;
7179;SDS011;3631;42.152;24.756;2023-04-03T03:13:16;2.50;;;2.30;;
7179;SDS011;3631;42.152;24.756;2023-04-03T03:15:55;3.80;;;2.10;;
7179;SDS011;3631;42.152;24.756;2023-04-03T03:18:46;2.80;;;2.60;;
7179;SDS011;3631;42.152;24.756;2023-04-03T03:21:30;4.80;;;2.70;;
7179;SDS011;3631;42.152;24.756;2023-04-03T03:24:10;2.67;;;2.43;;
7179;SDS011;3631;42.152;24.756;2023-04-03T03:26:41;3.17;;;2.97;;
7179;SDS011;3631;42.152;24.756;2023-04-03T03:29:22;7.87;;;3.10;;
7179;SDS011;3631;42.152;24.756;2023-04-03T03:32:09;3.43;;;3.13;;
7179;SDS011;3631;42.152;24.756;2023-04-03T03:34:50;4.63;;;2.70;;
7179;SDS011;3631;42.152;24.756;2023-04-03T03:37:24;3.30;;;3.00;;
7179;SDS011;3631;42.152;24.756;2023-04-03T03:39:56;3.70;;;3.40;;
7179;SDS011;3631;42.152;24.756;2023-04-03T03:42:27;5.27;;;2.83;;
7179;SDS011;3631;42.152;24.756;2023-04-03T03:45:07;3.03;;;2.83;;
7179;SDS011;3631;42.152;24.756;2023-04-03T03:48:06;4.10;;;2.80;;
7179;SDS011;3631;42.152;24.756;2023-04-03T03:50:49;3.00;;;2.80;;
7179;SDS011;3631;42.152;24.756;2023-04-03T03:54:00;3.50;;;3.20;;
7179;SDS011;3631;42.152;24.756;2023-04-03T03:57:00;3.80;;;3.50;;
7179;SDS011;3631;42.152;24.756;2023-04-03T03:59:59;7.00;;;3.70;;
7179;SDS011;3631;42.152;24.756;2023-04-03T04:02:52;6.07;;;4.10;;
7179;SDS011;3631;42.152;24.756;2023-04-03T04:05:56;7.27;;;3.93;;
7179;SDS011;3631;42.152;24.756;2023-04-03T04:08:42;5.03;;;3.50;;
7179;SDS011;3631;42.152;24.756;2023-04-03T04:11:27;5.97;;;3.40;;
7179;SDS011;3631;42.152;24.756;2023-04-03T04:14:16;7.33;;;4.53;;
7179;SDS011;3631;42.152;24.756;2023-04-03T04:16:52;5.43;;;4.93;;
7179;SDS011;3631;42.152;24.756;2023-04-03T04:19:32;8.90;;;4.83;;
7179;SDS011;3631;42.152;24.756;2023-04-03T04:22:19;10.13;;;5.93;;
7179;SDS011;3631;42.152;24.756;2023-04-03T04:24:51;12.50;;;5.80;;
7179;SDS011;3631;42.152;24.756;2023-04-03T04:27:34;7.80;;;4.97;;
7179;SDS011;3631;42.152;24.756;2023-04-03T04:30:16;7.60;;;5.00;;
7179;SDS011;3631;42.152;24.756;2023-04-03T04:33:07;7.43;;;5.60;;
7179;SDS011;3631;42.152;24.756;2023-04-03T04:35:48;11.00;;;5.30;;
7179;SDS011;3631;42.152;24.756;2023-04-03T04:38:36;13.33;;;6.20;;
7179;SDS011;3631;42.152;24.756;2023-04-03T04:41:21;10.23;;;6.73;;
7179;SDS011;3631;42.152;24.756;2023-04-03T04:44:24;25.80;;;15.73;;
7179;SDS011;3631;42.152;24.756;2023-04-03T04:47:01;14.27;;;8.07;;
7179;SDS011;3631;42.152;24.756;2023-04-03T04:49:36;17.70;;;6.80;;
7179;SDS011;3631;42.152;24.756;2023-04-03T04:52:17;7.73;;;5.97;;
7179;SDS011;3631;42.152;24.756;2023-04-03T04:54:58;21.67;;;8.77;;
7179;SDS011;3631;42.152;24.756;2023-04-03T04:57:37;15.13;;;7.50;;
7179;SDS011;3631;42.152;24.756;2023-04-03T05:00:19;33.07;;;8.53;;
7179;SDS011;3631;42.152;24.756;2023-04-03T05:03:12;24.30;;;9.07;;
7179;SDS011;3631;42.152;24.756;2023-04-03T05:06:11;18.73;;;10.03;;
7179;SDS011;3631;42.152;24.756;2023-04-03T05:09:06;18.97;;;8.80;;
7179;SDS011;3631;42.152;24.756;2023-04-03T05:11:51;15.07;;;8.10;;
7179;SDS011;3631;42.152;24.756;2023-04-03T05:14:54;21.20;;;8.93;;
7179;SDS011;3631;42.152;24.756;2023-04-03T05:17:55;15.07;;;8.27;;
7179;SDS011;3631;42.152;24.756;2023-04-03T05:20:47;15.97;;;7.67;;
7179;SDS011;3631;42.152;24.756;2023-04-03T05:23:42;10.67;;;7.73;;
7179;SDS011;3631;42.152;24.756;2023-04-03T05:26:18;13.27;;;6.93;;
7179;SDS011;3631;42.152;24.756;2023-04-03T05:29:07;18.47;;;7.50;;
7179;SDS011;3631;42.152;24.756;2023-04-03T05:31:56;17.47;;;7.87;;
7179;SDS011;3631;42.152;24.756;2023-04-03T05:34:37;13.23;;;7.70;;
7179;SDS011;3631;42.152;24.756;2023-04-03T05:37:27;12.77;;;7.63;;
7179;SDS011;3631;42.152;24.756;2023-04-03T05:40:12;18.33;;;7.97;;
7179;SDS011;3631;42.152;24.756;2023-04-03T05:43:06;12.63;;;8.73;;
7179;SDS011;3631;42.152;24.756;2023-04-03T05:45:58;9.80;;;7.57;;
7179;SDS011;3631;42.152;24.756;2023-04-03T05:49:10;22.30;;;9.73;;
7179;SDS011;3631;42.152;24.756;2023-04-03T05:52:08;13.97;;;9.00;;
7179;SDS011;3631;42.152;24.756;2023-04-03T05:55:06;12.20;;;8.87;;
7179;SDS011;3631;42.152;24.756;2023-04-03T05:58:08;15.60;;;8.40;;
7179;SDS011;3631;42.152;24.756;2023-04-03T06:01:03;20.00;;;9.40;;
7179;SDS011;3631;42.152;24.756;2023-04-03T06:04:08;17.53;;;8.77;;
7179;SDS011;3631;42.152;24.756;2023-04-03T06:06:57;21.67;;;9.20;;
7179;SDS011;3631;42.152;24.756;2023-04-03T06:09:43;16.83;;;8.77;;
7179;SDS011;3631;42.152;24.756;2023-04-03T06:16:08;12.33;;;8.83;;
7179;SDS011;3631;42.152;24.756;2023-04-03T06:19:02;12.70;;;7.57;;
7179;SDS011;3631;42.152;24.756;2023-04-03T06:21:49;17.60;;;7.97;;
7179;SDS011;3631;42.152;24.756;2023-04-03T06:24:17;16.80;;;8.30;;
7179;SDS011;3631;42.152;24.756;2023-04-03T06:26:45;19.73;;;9.07;;
7179;SDS011;3631;42.152;24.756;2023-04-03T06:29:12;21.37;;;9.10;;
7179;SDS011;3631;42.152;24.756;2023-04-03T06:31:41;21.77;;;8.73;;
7179;SDS011;3631;42.152;24.756;2023-04-03T06:34:10;16.20;;;8.77;;
7179;SDS011;3631;42.152;24.756;2023-04-03T06:37:13;17.47;;;7.93;;
7179;SDS011;3631;42.152;24.756;2023-04-03T06:39:59;19.13;;;8.23;;
7179;SDS011;3631;42.152;24.756;2023-04-03T06:42:54;14.00;;;7.30;;
7179;SDS011;3631;42.152;24.756;2023-04-03T06:45:42;20.33;;;7.83;;
7179;SDS011;3631;42.152;24.756;2023-04-03T06:48:45;8.53;;;7.17;;
7179;SDS011;3631;42.152;24.756;2023-04-03T06:51:40;13.57;;;7.50;;
7179;SDS011;3631;42.152;24.756;2023-04-03T06:54:37;14.90;;;7.30;;
7179;SDS011;3631;42.152;24.756;2023-04-03T06:57:36;15.33;;;7.80;;
7179;SDS011;3631;42.152;24.756;2023-04-03T07:00:40;7.97;;;6.03;;
7179;SDS011;3631;42.152;24.756;2023-04-03T07:03:22;8.80;;;5.50;;
7179;SDS011;3631;42.152;24.756;2023-04-03T07:06:09;16.63;;;6.13;;
7179;SDS011;3631;42.152;24.756;2023-04-03T07:09:03;13.13;;;5.63;;
7179;SDS011;3631;42.152;24.756;2023-04-03T07:12:01;12.80;;;5.40;;
7179;SDS011;3631;42.152;24.756;2023-04-03T07:15:04;13.73;;;5.73;;
7179;SDS011;3631;42.152;24.756;2023-04-03T07:18:07;5.57;;;5.07;;
7179;SDS011;3631;42.152;24.756;2023-04-03T07:21:16;9.03;;;5.17;;
7179;SDS011;3631;42.152;24.756;2023-04-03T07:24:04;9.93;;;5.80;;
7179;SDS011;3631;42.152;24.756;2023-04-03T07:26:52;10.20;;;5.33;;
7179;SDS011;3631;42.152;24.756;2023-04-03T07:29:55;5.37;;;4.87;;
7179;SDS011;3631;42.152;24.756;2023-04-03T07:32:34;6.90;;;4.80;;
7179;SDS011;3631;42.152;24.756;2023-04-03T07:35:35;4.93;;;4.53;;
7179;SDS011;3631;42.152;24.756;2023-04-03T07:38:39;4.97;;;4.57;;
7179;SDS011;3631;42.152;24.756;2023-04-03T07:41:45;7.27;;;4.63;;
7179;SDS011;3631;42.152;24.756;2023-04-03T07:44:41;5.37;;;4.40;;
7179;SDS011;3631;42.152;24.756;2023-04-03T07:47:40;5.40;;;4.90;;
7179;SDS011;3631;42.152;24.756;2023-04-03T07:50:31;4.73;;;4.40;;
7179;SDS011;3631;42.152;24.756;2023-04-03T07:53:19;8.20;;;2.90;;
7179;SDS011;3631;42.152;24.756;2023-04-03T07:55:51;3.97;;;3.57;;
7179;SDS011;3631;42.152;24.756;2023-04-03T07:58:39;6.10;;;3.03;;
7179;SDS011;3631;42.152;24.756;2023-04-03T08:01:32;3.50;;;2.93;;
7179;SDS011;3631;42.152;24.756;2023-04-03T08:04:30;2.80;;;2.60;;
7179;SDS011;3631;42.152;24.756;2023-04-03T08:07:29;3.80;;;2.90;;
7179;SDS011;3631;42.152;24.756;2023-04-03T08:10:29;6.17;;;3.80;;
7179;SDS011;3631;42.152;24.756;2023-04-03T08:13:40;5.17;;;3.83;;
7179;SDS011;3631;42.152;24.756;2023-04-03T08:16:20;8.97;;;5.40;;
7179;SDS011;3631;42.152;24.756;2023-04-03T08:19:05;6.50;;;4.90;;
7179;SDS011;3631;42.152;24.756;2023-04-03T08:21:52;10.97;;;5.80;;
7179;SDS011;3631;42.152;24.756;2023-04-03T08:24:59;17.27;;;10.20;;
7179;SDS011;3631;42.152;24.756;2023-04-03T08:28:04;31.10;;;10.57;;
7179;SDS011;3631;42.152;24.756;2023-04-03T08:34:05;13.87;;;9.67;;
7179;SDS011;3631;42.152;24.756;2023-04-03T08:36:54;14.20;;;8.90;;
7179;SDS011;3631;42.152;24.756;2023-04-03T08:40:04;13.73;;;7.03;;
7179;SDS011;3631;42.152;24.756;2023-04-03T08:43:03;12.10;;;6.37;;
7179;SDS011;3631;42.152;24.756;2023-04-03T08:49:57;9.00;;;5.20;;
7179;SDS011;3631;42.152;24.756;2023-04-03T08:52:57;8.80;;;5.67;;
7179;SDS011;3631;42.152;24.756;2023-04-03T08:55:52;6.07;;;5.47;;
7179;SDS011;3631;42.152;24.756;2023-04-03T08:58:30;8.07;;;5.00;;
7179;SDS011;3631;42.152;24.756;2023-04-03T09:01:39;8.50;;;5.27;;
7179;SDS011;3631;42.152;24.756;2023-04-03T09:04:42;7.47;;;5.03;;
7179;SDS011;3631;42.152;24.756;2023-04-03T09:08:07;13.63;;;9.07;;
7179;SDS011;3631;42.152;24.756;2023-04-03T09:11:09;10.50;;;6.70;;
7179;SDS011;3631;42.152;24.756;2023-04-03T09:14:11;9.60;;;6.97;;
7179;SDS011;3631;42.152;24.756;2023-04-03T09:17:26;9.23;;;7.70;;
7179;SDS011;3631;42.152;24.756;2023-04-03T09:20:39;10.70;;;6.53;;
7179;SDS011;3631;42.152;24.756;2023-04-03T09:24:09;10.33;;;6.80;;
7179;SDS011;3631;42.152;24.756;2023-04-03T09:27:17;8.87;;;5.63;;
7179;SDS011;3631;42.152;24.756;2023-04-03T09:30:19;5.87;;;4.03;;
7179;SDS011;3631;42.152;24.756;2023-04-03T09:33:21;4.20;;;3.50;;
7179;SDS011;3631;42.152;24.756;2023-04-03T09:36:16;11.20;;;4.27;;
7179;SDS011;3631;42.152;24.756;2023-04-03T09:39:56;8.00;;;2.97;;
7179;SDS011;3631;42.152;24.756;2023-04-03T09:43:21;4.23;;;3.83;;
7179;SDS011;3631;42.152;24.756;2023-04-03T09:46:33;5.03;;;3.60;;
7179;SDS011;3631;42.152;24.756;2023-04-03T09:49:41;5.43;;;3.73;;
7179;SDS011;3631;42.152;24.756;2023-04-03T09:52:22;7.13;;;3.73;;
7179;SDS011;3631;42.152;24.756;2023-04-03T09:55:16;5.60;;;2.80;;
7179;SDS011;3631;42.152;24.756;2023-04-03T09:58:21;8.27;;;3.77;;
7179;SDS011;3631;42.152;24.756;2023-04-03T10:01:27;6.20;;;3.50;;
7179;SDS011;3631;42.152;24.756;2023-04-03T10:04:25;14.37;;;5.70;;
7179;SDS011;3631;42.152;24.756;2023-04-03T10:07:50;12.23;;;5.00;;
7179;SDS011;3631;42.152;24.756;2023-04-03T10:14:16;9.40;;;5.07;;
7179;SDS011;3631;42.152;24.756;2023-04-03T10:17:32;7.57;;;4.10;;
7179;SDS011;3631;42.152;24.756;2023-04-03T10:20:39;4.87;;;3.90;;
7179;SDS011;3631;42.152;24.756;2023-04-03T10:23:52;6.07;;;4.83;;
7179;SDS011;3631;42.152;24.756;2023-04-03T10:27:09;5.03;;;4.47;;
7179;SDS011;3631;42.152;24.756;2023-04-03T10:30:08;12.03;;;4.17;;
7179;SDS011;3631;42.152;24.756;2023-04-03T10:36:32;5.63;;;4.17;;
7179;SDS011;3631;42.152;24.756;2023-04-03T10:39:33;9.03;;;5.07;;
7179;SDS011;3631;42.152;24.756;2023-04-03T10:42:55;7.20;;;5.83;;
7179;SDS011;3631;42.152;24.756;2023-04-03T10:45:49;9.13;;;7.10;;
7179;SDS011;3631;42.152;24.756;2023-04-03T10:49:03;9.07;;;7.20;;
7179;SDS011;3631;42.152;24.756;2023-04-03T10:52:05;9.17;;;5.80;;
7179;SDS011;3631;42.152;24.756;2023-04-03T10:55:02;7.23;;;5.73;;
7179;SDS011;3631;42.152;24.756;2023-04-03T11:14:01;9.03;;;6.70;;
7179;SDS011;3631;42.152;24.756;2023-04-03T11:16:53;8.83;;;5.13;;
7179;SDS011;3631;42.152;24.756;2023-04-03T11:20:13;6.77;;;5.40;;
7179;SDS011;3631;42.152;24.756;2023-04-03T11:23:17;5.97;;;4.87;;
7179;SDS011;3631;42.152;24.756;2023-04-03T11:26:10;4.70;;;4.30;;
7179;SDS011;3631;42.152;24.756;2023-04-03T11:28:56;6.00;;;5.27;;
7179;SDS011;3631;42.152;24.756;2023-04-03T11:31:33;5.30;;;4.20;;
7179;SDS011;3631;42.152;24.756;2023-04-03T11:34:22;5.60;;;5.07;;
7179;SDS011;3631;42.152;24.756;2023-04-03T11:37:12;4.07;;;3.87;;
7179;SDS011;3631;42.152;24.756;2023-04-03T11:39:58;4.63;;;4.23;;
7179;SDS011;3631;42.152;24.756;2023-04-03T11:42:36;4.50;;;4.10;;
7179;SDS011;3631;42.152;24.756;2023-04-03T11:45:35;6.20;;;5.70;;
7179;SDS011;3631;42.152;24.756;2023-04-03T11:57:44;5.23;;;4.80;;
7179;SDS011;3631;42.152;24.756;2023-04-03T12:00:55;8.30;;;6.90;;
7179;SDS011;3631;42.152;24.756;2023-04-03T12:06:50;13.00;;;9.30;;
7179;SDS011;3631;42.152;24.756;2023-04-03T12:09:27;9.87;;;7.77;;
7179;SDS011;3631;42.152;24.756;2023-04-03T12:12:28;10.30;;;8.63;;
7179;SDS011;3631;42.152;24.756;2023-04-03T12:21:18;7.33;;;6.60;;
7179;SDS011;3631;42.152;24.756;2023-04-03T12:24:01;10.60;;;7.00;;
7179;SDS011;3631;42.152;24.756;2023-04-03T12:30:18;8.47;;;6.53;;
7179;SDS011;3631;42.152;24.756;2023-04-03T12:33:23;7.27;;;6.53;;
7179;SDS011;3631;42.152;24.756;2023-04-03T12:36:36;6.87;;;5.67;;
7179;SDS011;3631;42.152;24.756;2023-04-03T12:42:51;14.27;;;6.97;;
7179;SDS011;3631;42.152;24.756;2023-04-03T12:45:46;12.23;;;6.90;;
7179;SDS011;3631;42.152;24.756;2023-04-03T12:48:41;12.47;;;7.80;;
7179;SDS011;3631;42.152;24.756;2023-04-03T12:51:42;20.07;;;7.67;;
7179;SDS011;3631;42.152;24.756;2023-04-03T12:54:33;12.80;;;6.63;;
7179;SDS011;3631;42.152;24.756;2023-04-03T12:57:32;14.10;;;8.03;;
7179;SDS011;3631;42.152;24.756;2023-04-03T13:00:36;13.87;;;7.80;;
7179;SDS011;3631;42.152;24.756;2023-04-03T13:03:25;12.00;;;6.80;;
7179;SDS011;3631;42.152;24.756;2023-04-03T13:06:05;15.73;;;8.27;;
7179;SDS011;3631;42.152;24.756;2023-04-03T13:09:14;11.80;;;7.77;;
7179;SDS011;3631;42.152;24.756;2023-04-03T13:12:00;12.53;;;6.73;;
7179;SDS011;3631;42.152;24.756;2023-04-03T13:14:53;7.43;;;6.30;;
7179;SDS011;3631;42.152;24.756;2023-04-03T13:17:55;7.43;;;6.27;;
7179;SDS011;3631;42.152;24.756;2023-04-03T13:20:50;8.60;;;6.77;;
7179;SDS011;3631;42.152;24.756;2023-04-03T13:23:31;8.20;;;7.40;;
7179;SDS011;3631;42.152;24.756;2023-04-03T13:26:10;7.57;;;6.97;;
7179;SDS011;3631;42.152;24.756;2023-04-03T13:28:41;10.90;;;9.80;;
7179;SDS011;3631;42.152;24.756;2023-04-03T13:31:19;10.43;;;9.27;;
7179;SDS011;3631;42.152;24.756;2023-04-03T13:34:05;9.93;;;8.13;;
7179;SDS011;3631;42.152;24.756;2023-04-03T13:36:42;12.67;;;8.47;;
7179;SDS011;3631;42.152;24.756;2023-04-03T13:39:35;9.03;;;8.17;;
7179;SDS011;3631;42.152;24.756;2023-04-03T13:45:18;9.70;;;8.43;;
7179;SDS011;3631;42.152;24.756;2023-04-03T13:48:08;9.47;;;7.90;;
7179;SDS011;3631;42.152;24.756;2023-04-03T13:51:02;12.53;;;8.40;;
7179;SDS011;3631;42.152;24.756;2023-04-03T13:57:27;12.37;;;10.80;;
7179;SDS011;3631;42.152;24.756;2023-04-03T14:00:48;13.30;;;11.43;;
7179;SDS011;3631;42.152;24.756;2023-04-03T14:03:33;15.43;;;13.87;;
7179;SDS011;3631;42.152;24.756;2023-04-03T14:06:21;15.50;;;12.50;;
7179;SDS011;3631;42.152;24.756;2023-04-03T14:08:58;15.47;;;12.50;;
7179;SDS011;3631;42.152;24.756;2023-04-03T14:11:46;14.50;;;12.43;;
7179;SDS011;3631;42.152;24.756;2023-04-03T14:14:43;15.43;;;13.93;;
7179;SDS011;3631;42.152;24.756;2023-04-03T14:17:37;14.87;;;13.33;;
7179;SDS011;3631;42.152;24.756;2023-04-03T14:20:34;13.50;;;11.97;;
7179;SDS011;3631;42.152;24.756;2023-04-03T14:23:44;14.60;;;11.73;;
7179;SDS011;3631;42.152;24.756;2023-04-03T14:26:56;15.60;;;12.97;;
7179;SDS011;3631;42.152;24.756;2023-04-03T14:29:57;14.83;;;11.97;;
7179;SDS011;3631;42.152;24.756;2023-04-03T14:33:03;13.73;;;11.80;;
7179;SDS011;3631;42.152;24.756;2023-04-03T14:35:58;13.93;;;10.63;;
7179;SDS011;3631;42.152;24.756;2023-04-03T14:38:49;12.43;;;11.17;;
7179;SDS011;3631;42.152;24.756;2023-04-03T14:41:30;13.17;;;11.40;;
7179;SDS011;3631;42.152;24.756;2023-04-03T14:44:24;12.70;;;10.30;;
7179;SDS011;3631;42.152;24.756;2023-04-03T14:47:21;12.90;;;10.30;;
7179;SDS011;3631;42.152;24.756;2023-04-03T14:50:07;12.60;;;10.33;;
7179;SDS011;3631;42.152;24.756;2023-04-03T14:52:58;11.17;;;10.07;;
7179;SDS011;3631;42.152;24.756;2023-04-03T14:56:12;12.73;;;11.13;;
7179;SDS011;3631;42.152;24.756;2023-04-03T14:58:57;13.80;;;12.33;;
7179;SDS011;3631;42.152;24.756;2023-04-03T15:01:59;18.73;;;12.93;;
7179;SDS011;3631;42.152;24.756;2023-04-03T15:08:36;33.27;;;19.73;;
7179;SDS011;3631;42.152;24.756;2023-04-03T15:11:24;24.20;;;16.27;;
7179;SDS011;3631;42.152;24.756;2023-04-03T15:14:30;31.33;;;18.80;;
7179;SDS011;3631;42.152;24.756;2023-04-03T15:17:41;19.27;;;13.67;;
7179;SDS011;3631;42.152;24.756;2023-04-03T15:20:35;20.00;;;14.10;;
7179;SDS011;3631;42.152;24.756;2023-04-03T15:23:32;17.17;;;13.97;;
7179;SDS011;3631;42.152;24.756;2023-04-03T15:26:26;24.53;;;16.67;;
7179;SDS011;3631;42.152;24.756;2023-04-03T15:29:22;25.90;;;16.50;;
7179;SDS011;3631;42.152;24.756;2023-04-03T15:32:25;25.43;;;16.60;;
7179;SDS011;3631;42.152;24.756;2023-04-03T15:35:39;25.67;;;16.90;;
7179;SDS011;3631;42.152;24.756;2023-04-03T15:41:50;27.87;;;17.97;;
7179;SDS011;3631;42.152;24.756;2023-04-03T15:44:45;19.70;;;14.93;;
7179;SDS011;3631;42.152;24.756;2023-04-03T15:47:47;19.97;;;11.93;;
7179;SDS011;3631;42.152;24.756;2023-04-03T15:50:24;23.17;;;13.17;;
7179;SDS011;3631;42.152;24.756;2023-04-03T15:53:18;21.80;;;11.83;;
7179;SDS011;3631;42.152;24.756;2023-04-03T15:56:17;17.50;;;11.27;;
7179;SDS011;3631;42.152;24.756;2023-04-03T15:59:05;19.53;;;11.80;;
7179;SDS011;3631;42.152;24.756;2023-04-03T16:02:02;22.30;;;13.53;;
7179;SDS011;3631;42.152;24.756;2023-04-03T16:05:05;27.50;;;14.40;;
7179;SDS011;3631;42.152;24.756;2023-04-03T16:08:06;20.03;;;14.33;;
7179;SDS011;3631;42.152;24.756;2023-04-03T16:11:05;28.13;;;15.30;;
7179;SDS011;3631;42.152;24.756;2023-04-03T16:14:00;24.67;;;14.70;;
7179;SDS011;3631;42.152;24.756;2023-04-03T16:17:12;21.73;;;13.93;;
7179;SDS011;3631;42.152;24.756;2023-04-03T16:19:49;22.97;;;15.13;;
7179;SDS011;3631;42.152;24.756;2023-04-03T16:22:47;22.70;;;15.60;;
7179;SDS011;3631;42.152;24.756;2023-04-03T16:25:44;19.83;;;14.97;;
7179;SDS011;3631;42.152;24.756;2023-04-03T16:28:21;20.97;;;14.23;;
7179;SDS011;3631;42.152;24.756;2023-04-03T16:31:00;17.40;;;11.83;;
7179;SDS011;3631;42.152;24.756;2023-04-03T16:33:33;25.67;;;13.43;;
7179;SDS011;3631;42.152;24.756;2023-04-03T16:36:08;18.70;;;11.73;;
7179;SDS011;3631;42.152;24.756;2023-04-03T16:38:43;19.83;;;12.53;;
7179;SDS011;3631;42.152;24.756;2023-04-03T16:41:19;19.83;;;13.27;;
7179;SDS011;3631;42.152;24.756;2023-04-03T16:44:01;16.90;;;12.00;;
7179;SDS011;3631;42.152;24.756;2023-04-03T16:46:58;22.50;;;13.60;;
7179;SDS011;3631;42.152;24.756;2023-04-03T16:49:48;16.10;;;11.60;;
7179;SDS011;3631;42.152;24.756;2023-04-03T16:52:26;15.53;;;10.57;;
7179;SDS011;3631;42.152;24.756;2023-04-03T16:55:00;22.33;;;12.67;;
7179;SDS011;3631;42.152;24.756;2023-04-03T16:57:46;23.40;;;14.57;;
7179;SDS011;3631;42.152;24.756;2023-04-03T17:00:31;25.17;;;17.33;;
7179;SDS011;3631;42.152;24.756;2023-04-03T17:03:42;26.10;;;14.90;;
7179;SDS011;3631;42.152;24.756;2023-04-03T17:06:20;21.00;;;14.23;;
7179;SDS011;3631;42.152;24.756;2023-04-03T17:09:01;21.30;;;14.33;;
7179;SDS011;3631;42.152;24.756;2023-04-03T17:11:43;26.27;;;17.17;;
7179;SDS011;3631;42.152;24.756;2023-04-03T17:14:43;30.80;;;16.10;;
7179;SDS011;3631;42.152;24.756;2023-04-03T17:17:31;24.83;;;12.73;;
7179;SDS011;3631;42.152;24.756;2023-04-03T17:20:30;20.73;;;12.97;;
7179;SDS011;3631;42.152;24.756;2023-04-03T17:23:09;18.53;;;11.60;;
7179;SDS011;3631;42.152;24.756;2023-04-03T17:26:01;15.20;;;9.67;;
7179;SDS011;3631;42.152;24.756;2023-04-03T17:28:43;15.70;;;10.00;;
7179;SDS011;3631;42.152;24.756;2023-04-03T17:31:47;14.23;;;10.20;;
7179;SDS011;3631;42.152;24.756;2023-04-03T17:34:45;12.93;;;9.20;;
7179;SDS011;3631;42.152;24.756;2023-04-03T17:44:07;16.90;;;9.50;;
7179;SDS011;3631;42.152;24.756;2023-04-03T17:47:12;11.23;;;8.50;;
7179;SDS011;3631;42.152;24.756;2023-04-03T17:49:46;11.03;;;9.53;;
7179;SDS011;3631;42.152;24.756;2023-04-03T17:52:42;14.13;;;9.13;;
7179;SDS011;3631;42.152;24.756;2023-04-03T17:55:37;17.93;;;10.07;;
7179;SDS011;3631;42.152;24.756;2023-04-03T18:01:28;13.67;;;9.07;;
7179;SDS011;3631;42.152;24.756;2023-04-03T18:04:16;11.40;;;8.73;;
7179;SDS011;3631;42.152;24.756;2023-04-03T18:06:45;10.43;;;8.07;;
7179;SDS011;3631;42.152;24.756;2023-04-03T18:09:37;8.90;;;8.10;;
7179;SDS011;3631;42.152;24.756;2023-04-03T18:12:07;11.53;;;9.23;;
7179;SDS011;3631;42.152;24.756;2023-04-03T18:14:43;12.03;;;7.63;;
7179;SDS011;3631;42.152;24.756;2023-04-03T18:17:27;9.80;;;8.47;;
7179;SDS011;3631;42.152;24.756;2023-04-03T18:20:06;10.00;;;8.67;;
7179;SDS011;3631;42.152;24.756;2023-04-03T18:22:41;9.57;;;8.37;;
7179;SDS011;3631;42.152;24.756;2023-04-03T18:25:14;10.27;;;9.20;;
7179;SDS011;3631;42.152;24.756;2023-04-03T18:27:47;11.93;;;8.97;;
7179;SDS011;3631;42.152;24.756;2023-04-03T18:30:29;12.37;;;8.93;;
7179;SDS011;3631;42.152;24.756;2023-04-03T18:33:24;11.67;;;9.33;;
7179;SDS011;3631;42.152;24.756;2023-04-03T18:36:23;11.47;;;10.03;;
7179;SDS011;3631;42.152;24.756;2023-04-03T18:39:09;11.67;;;10.30;;
7179;SDS011;3631;42.152;24.756;2023-04-03T18:41:56;12.00;;;10.20;;
7179;SDS011;3631;42.152;24.756;2023-04-03T18:44:38;12.57;;;9.57;;
7179;SDS011;3631;42.152;24.756;2023-04-03T18:47:27;12.13;;;10.23;;
7179;SDS011;3631;42.152;24.756;2023-04-03T18:50:16;16.20;;;9.83;;
7179;SDS011;3631;42.152;24.756;2023-04-03T18:53:09;11.87;;;10.00;;
7179;SDS011;3631;42.152;24.756;2023-04-03T18:56:03;14.40;;;10.53;;
7179;SDS011;3631;42.152;24.756;2023-04-03T18:58:57;13.37;;;10.47;;
7179;SDS011;3631;42.152;24.756;2023-04-03T19:01:56;13.03;;;10.47;;
7179;SDS011;3631;42.152;24.756;2023-04-03T19:04:46;18.13;;;12.37;;
7179;SDS011;3631;42.152;24.756;2023-04-03T19:07:43;14.20;;;11.27;;